aviador You're here:

KDTS Decoded Metar

DESTIN in FL, USA
Report Time2017-06-29 06:53:00
UTC Time2017-06-29 07:18:23
Flight Rules vfr VFR
Wind100° at 06 kt
W.Decomp.*RWY 14: 4.7 kt HW 3.8 kt LCW
W.Rank100° ranks 31
Current wind is below 100° avg. (6.1)
Visibility9999 m
Phenomena:N/A
Clouds:N/A
CeilingNone
Temp24°C (ISA +9)
Dew Point24°C (100% RH)
QNH1017 hPa
Density Alt1,319 ft
Elevation16 ft
Report Wrong Elevation
Raw Report
KDTS 290653Z AUTO 10006KT 10SM CLR 24/24 A3004 RMK AO2 LTG DSNT SE
RAE35 SLP171 P0010 T02440239 $=

Extra information for KDTS:More info

Metar Taf Metar & Taf Last 4 Metars F.Rules Stats Wind Profile Meteogram Temp Stats Airport Information Weather charts Add Link Nearby VenuesMetar ALERT Operation Metar Decoded Social comments

AIRNAV info for KDTS